Time;durP1;ratioP1;P1;durP2;ratioP2;P2;SDS_P1;SDS_P2;PMS_P1;PMS_P2;Temp;Humidity;BMP_temperature;BMP_pressure;BME280_temperature;BME280_humidity;BME280_pressure;Samples;Min_cycle;Max_cycle;Signal;HPM_P1;HPM_P2
2021/06/27 00:00:19;;;;;;;8.02;6.30;;;;;;;;;;349173;28;1085;-71
2021/06/27 00:00:33;;;;;;;7.35;6.47;;;;;;;;;;345001;28;63516;-70
2021/06/27 00:00:46;;;;;;;8.18;6.57;;;;;;;;;;346484;28;39572;-70
2021/06/27 00:00:59;;;;;;;8.32;6.60;;;;;;;;;;347659;28;1131;-72
2021/06/27 00:01:12;;;;;;;7.72;6.45;;;;;;;;;;347991;28;1433;-76
2021/06/27 00:01:27;;;;;;;7.78;6.18;;;;;;;;;;347629;28;16791;-71
2021/06/27 00:01:40;;;;;;;6.97;6.15;;;;;;;;;;347622;28;39791;-74
2021/06/27 00:01:52;;;;;;;7.22;6.47;;;;;;;;;;348486;28;1744;-72
2021/06/27 00:02:04;;;;;;;7.90;6.40;;;;;;;;;;347339;28;1106;-71
2021/06/27 00:02:16;;;;;;;7.25;5.97;;;;;;;;;;347700;28;1266;-76
2021/06/27 00:02:28;;;;;;;6.68;5.80;;;;;;;;;;348679;28;1290;-71
2021/06/27 00:02:41;;;;;;;7.25;6.30;;;;;;;;;;350665;28;1049;-70
2021/06/27 00:02:53;;;;;;;7.32;6.57;;;;;;;;;;350088;28;1237;-70
2021/06/27 00:03:05;;;;;;;8.05;6.85;;;;;;;;;;348902;28;1200;-73
2021/06/27 00:03:17;;;;;;;9.20;6.95;;;;;;;;;;348922;28;1165;-70
2021/06/27 00:03:29;;;;;;;9.45;6.85;;;;;;;;;;348912;28;1145;-70
2021/06/27 00:03:41;;;;;;;7.65;6.07;;;;;;;;;;349005;28;1102;-69
2021/06/27 00:03:56;;;;;;;7.28;5.95;;;;;;;;;;349059;28;1089;-68
2021/06/27 00:04:13;;;;;;;7.45;6.38;;;;;;;;;;350335;28;40321;-73
2021/06/27 00:04:25;;;;;;;7.97;6.78;;;;;;;;;;350016;28;63786;-73
2021/06/27 00:04:38;;;;;;;8.30;6.80;;;;;;;;;;349684;28;1774;-68
2021/06/27 00:04:50;;;;;;;8.23;6.60;;;;;;;;;;350233;28;1039;-70
2021/06/27 00:05:04;;;;;;;7.63;6.55;;;;;;;;;;349658;28;16718;-71
2021/06/27 00:05:18;;;;;;;7.63;6.60;;;;;;;;;;349755;28;18426;-74
2021/06/27 00:05:31;;;;;;;8.02;6.35;;;;;;;;;;350515;28;1098;-71
2021/06/27 00:05:43;;;;;;;7.88;6.43;;;;;;;;;;350357;28;1010;-76
2021/06/27 00:05:55;;;;;;;7.45;6.43;;;;;;;;;;350345;28;1089;-70
2021/06/27 00:06:07;;;;;;;7.57;6.78;;;;;;;;;;349321;28;1080;-74
2021/06/27 00:06:20;;;;;;;7.70;6.90;;;;;;;;;;348986;28;1218;-75
2021/06/27 00:06:40;;;;;;;7.63;6.68;;;;;;;;;;348583;28;62677;-72
2021/06/27 00:06:52;;;;;;;7.55;6.55;;;;;;;;;;350523;28;1110;-71
2021/06/27 00:07:04;;;;;;;8.18;6.50;;;;;;;;;;350377;28;1356;-75
2021/06/27 00:07:16;;;;;;;8.68;6.63;;;;;;;;;;349764;28;1659;-70
2021/06/27 00:07:28;;;;;;;8.93;6.45;;;;;;;;;;348970;28;1780;-71
2021/06/27 00:07:41;;;;;;;9.68;6.45;;;;;;;;;;349302;28;1737;-70
2021/06/27 00:07:54;;;;;;;10.07;6.85;;;;;;;;;;349380;28;1920;-71
2021/06/27 00:08:07;;;;;;;9.68;7.45;;;;;;;;;;350177;28;1312;-72
2021/06/27 00:08:19;;;;;;;8.65;7.40;;;;;;;;;;350488;28;1045;-70
2021/06/27 00:08:31;;;;;;;7.43;6.70;;;;;;;;;;350672;28;1037;-69
2021/06/27 00:08:44;;;;;;;7.13;6.22;;;;;;;;;;351781;28;1141;-71
2021/06/27 00:08:56;;;;;;;7.90;6.70;;;;;;;;;;351974;28;1213;-69
2021/06/27 00:09:08;;;;;;;8.38;7.25;;;;;;;;;;351748;28;1107;-70
2021/06/27 00:09:21;;;;;;;8.30;7.03;;;;;;;;;;348925;28;1571;-74
2021/06/27 00:09:33;;;;;;;8.02;6.82;;;;;;;;;;348924;28;1156;-75
2021/06/27 00:09:45;;;;;;;7.72;6.53;;;;;;;;;;348845;28;1135;-71
2021/06/27 00:09:57;;;;;;;8.25;7.07;;;;;;;;;;348929;28;1381;-70
2021/06/27 00:10:12;;;;;;;8.00;7.05;;;;;;;;;;348908;28;1090;-73
2021/06/27 00:10:29;;;;;;;8.55;6.93;;;;;;;;;;347862;28;16682;-76
2021/06/27 00:10:44;;;;;;;8.75;7.00;;;;;;;;;;345536;28;63918;-70
2021/06/27 00:10:58;;;;;;;9.32;7.10;;;;;;;;;;346433;28;41111;-68
2021/06/27 00:11:11;;;;;;;8.90;6.80;;;;;;;;;;347083;28;17380;-71
2021/06/27 00:11:26;;;;;;;8.90;6.78;;;;;;;;;;349941;28;990;-70
2021/06/27 00:11:38;;;;;;;11.18;6.95;;;;;;;;;;349287;28;40251;-70
2021/06/27 00:11:50;;;;;;;11.07;6.90;;;;;;;;;;350708;28;1062;-69
2021/06/27 00:12:03;;;;;;;8.72;6.80;;;;;;;;;;350509;28;1097;-69
2021/06/27 00:12:15;;;;;;;8.63;6.75;;;;;;;;;;350544;28;1037;-70
2021/06/27 00:12:27;;;;;;;9.88;6.97;;;;;;;;;;351194;28;1081;-69
2021/06/27 00:12:41;;;;;;;9.43;6.97;;;;;;;;;;351306;28;16775;-74
2021/06/27 00:12:54;;;;;;;7.93;7.00;;;;;;;;;;351883;28;1172;-69
2021/06/27 00:13:06;;;;;;;7.90;7.07;;;;;;;;;;351437;28;995;-72
2021/06/27 00:13:19;;;;;;;8.88;6.97;;;;;;;;;;351930;28;1085;-71
2021/06/27 00:13:31;;;;;;;9.55;7.20;;;;;;;;;;351765;28;1274;-69
2021/06/27 00:13:45;;;;;;;9.10;7.38;;;;;;;;;;351755;28;1205;-69
2021/06/27 00:13:57;;;;;;;8.70;6.95;;;;;;;;;;349763;28;15991;-72
2021/06/27 00:14:10;;;;;;;9.10;6.90;;;;;;;;;;349143;28;1136;-70
2021/06/27 00:14:22;;;;;;;8.88;6.80;;;;;;;;;;348834;28;1092;-69
2021/06/27 00:14:34;;;;;;;8.40;6.82;;;;;;;;;;348902;28;1629;-69
2021/06/27 00:14:46;;;;;;;8.55;6.68;;;;;;;;;;349010;28;1067;-73
2021/06/27 00:14:58;;;;;;;8.70;6.68;;;;;;;;;;347656;28;1061;-69
2021/06/27 00:15:14;;;;;;;8.27;6.78;;;;;;;;;;348787;28;999;-72
2021/06/27 00:15:30;;;;;;;9.45;6.95;;;;;;;;;;346470;28;39804;-69
2021/06/27 00:15:44;;;;;;;8.43;6.90;;;;;;;;;;345448;28;64006;-73
2021/06/27 00:15:57;;;;;;;7.65;6.75;;;;;;;;;;346640;28;40976;-69
2021/06/27 00:16:10;;;;;;;9.52;7.10;;;;;;;;;;347634;28;1034;-72
2021/06/27 00:16:22;;;;;;;9.70;7.07;;;;;;;;;;347916;28;1117;-71
2021/06/27 00:16:35;;;;;;;8.88;6.78;;;;;;;;;;347517;28;1118;-72
2021/06/27 00:16:47;;;;;;;8.90;6.72;;;;;;;;;;347596;28;971;-69
2021/06/27 00:16:59;;;;;;;8.98;6.82;;;;;;;;;;347283;28;1600;-73
2021/06/27 00:17:11;;;;;;;8.40;6.68;;;;;;;;;;347914;28;1285;-69
2021/06/27 00:17:23;;;;;;;8.65;6.80;;;;;;;;;;349230;28;1114;-72
2021/06/27 00:17:36;;;;;;;9.25;6.90;;;;;;;;;;349687;28;993;-69
2021/06/27 00:17:48;;;;;;;9.52;7.20;;;;;;;;;;347706;28;1353;-69
2021/06/27 00:18:01;;;;;;;9.35;7.50;;;;;;;;;;347808;28;1616;-72
2021/06/27 00:18:15;;;;;;;8.55;7.25;;;;;;;;;;348262;28;1400;-69
2021/06/27 00:18:28;;;;;;;8.05;7.00;;;;;;;;;;347528;28;17465;-73
2021/06/27 00:18:40;;;;;;;8.20;7.05;;;;;;;;;;350228;28;1079;-68
2021/06/27 00:18:52;;;;;;;10.50;7.07;;;;;;;;;;349457;28;1395;-73
2021/06/27 00:19:04;;;;;;;10.84;7.28;;;;;;;;;;347697;28;1002;-70
2021/06/27 00:19:16;;;;;;;10.50;7.40;;;;;;;;;;347595;28;1557;-70
2021/06/27 00:19:28;;;;;;;8.18;7.10;;;;;;;;;;347693;28;999;-71
2021/06/27 00:19:41;;;;;;;7.50;6.72;;;;;;;;;;348879;28;1543;-70
2021/06/27 00:19:53;;;;;;;7.85;6.88;;;;;;;;;;349180;28;1228;-72
2021/06/27 00:20:07;;;;;;;8.48;6.95;;;;;;;;;;349096;28;1127;-69
2021/06/27 00:20:21;;;;;;;9.68;7.05;;;;;;;;;;348355;28;17198;-73
2021/06/27 00:20:35;;;;;;;10.27;7.00;;;;;;;;;;348831;28;16538;-74
2021/06/27 00:20:49;;;;;;;9.98;7.00;;;;;;;;;;349786;28;18128;-73
2021/06/27 00:21:03;;;;;;;9.20;7.18;;;;;;;;;;347703;28;1098;-72
2021/06/27 00:21:16;;;;;;;8.75;7.18;;;;;;;;;;350178;28;15829;-70
2021/06/27 00:21:28;;;;;;;9.88;7.30;;;;;;;;;;353217;28;1061;-72
2021/06/27 00:21:40;;;;;;;9.98;7.20;;;;;;;;;;351870;28;1173;-69
2021/06/27 00:21:52;;;;;;;9.02;6.97;;;;;;;;;;352045;28;1538;-72
2021/06/27 00:22:04;;;;;;;9.65;6.90;;;;;;;;;;353476;28;1054;-74
2021/06/27 00:22:16;;;;;;;10.73;7.30;;;;;;;;;;352302;28;1347;-73
2021/06/27 00:22:29;;;;;;;10.38;7.40;;;;;;;;;;351902;28;1037;-71
2021/06/27 00:22:41;;;;;;;8.30;6.97;;;;;;;;;;349223;28;1105;-73
2021/06/27 00:22:53;;;;;;;8.38;7.13;;;;;;;;;;349583;28;1423;-69
2021/06/27 00:23:06;;;;;;;9.65;7.55;;;;;;;;;;351960;28;1381;-72
2021/06/27 00:23:19;;;;;;;10.30;7.38;;;;;;;;;;348998;28;1337;-70
2021/06/27 00:23:34;;;;;;;8.70;6.90;;;;;;;;;;348550;28;17036;-72
2021/06/27 00:23:47;;;;;;;10.02;6.97;;;;;;;;;;349161;28;41061;-69
2021/06/27 00:23:59;;;;;;;10.55;7.05;;;;;;;;;;349161;28;1344;-73
2021/06/27 00:24:11;;;;;;;10.02;6.82;;;;;;;;;;349067;28;1400;-70
2021/06/27 00:24:24;;;;;;;8.85;6.60;;;;;;;;;;350219;28;1268;-70
2021/06/27 00:24:36;;;;;;;10.40;6.70;;;;;;;;;;349656;28;1312;-71
2021/06/27 00:24:48;;;;;;;11.30;7.03;;;;;;;;;;348984;28;1289;-69
2021/06/27 00:25:00;;;;;;;12.02;7.10;;;;;;;;;;351449;28;1349;-70
2021/06/27 00:25:13;;;;;;;9.77;6.70;;;;;;;;;;351531;28;1375;-69
2021/06/27 00:25:26;;;;;;;8.43;6.97;;;;;;;;;;352248;28;1114;-73
2021/06/27 00:25:39;;;;;;;7.93;7.13;;;;;;;;;;352379;28;17306;-69
2021/06/27 00:25:52;;;;;;;9.88;7.10;;;;;;;;;;351513;28;1324;-73
2021/06/27 00:26:06;;;;;;;10.90;7.18;;;;;;;;;;350310;28;1427;-69
2021/06/27 00:26:20;;;;;;;9.32;7.12;;;;;;;;;;350361;28;1080;-71
2021/06/27 00:26:32;;;;;;;8.65;7.10;;;;;;;;;;351400;28;16935;-70
2021/06/27 00:26:45;;;;;;;9.23;7.25;;;;;;;;;;351437;28;2079;-71
2021/06/27 00:26:57;;;;;;;10.43;7.25;;;;;;;;;;350359;28;1011;-70
2021/06/27 00:27:09;;;;;;;10.38;7.32;;;;;;;;;;350988;28;1296;-70
2021/06/27 00:27:21;;;;;;;11.68;7.53;;;;;;;;;;351872;28;1164;-73
2021/06/27 00:27:33;;;;;;;11.27;7.45;;;;;;;;;;351747;28;1191;-70
2021/06/27 00:27:47;;;;;;;10.70;7.36;;;;;;;;;;351707;28;1484;-70
2021/06/27 00:27:59;;;;;;;9.25;7.43;;;;;;;;;;351609;28;1156;-69
2021/06/27 00:28:11;;;;;;;8.85;7.30;;;;;;;;;;347812;28;1090;-72
2021/06/27 00:28:24;;;;;;;8.60;7.28;;;;;;;;;;348791;28;1106;-69
2021/06/27 00:28:36;;;;;;;7.93;7.07;;;;;;;;;;350238;28;1500;-70
2021/06/27 00:28:48;;;;;;;8.10;7.30;;;;;;;;;;350715;28;1870;-70
2021/06/27 00:29:00;;;;;;;8.20;7.40;;;;;;;;;;350282;28;1550;-70
2021/06/27 00:29:13;;;;;;;7.93;7.20;;;;;;;;;;350464;28;1089;-69
2021/06/27 00:29:25;;;;;;;8.54;7.20;;;;;;;;;;350413;28;1320;-71
2021/06/27 00:29:37;;;;;;;8.73;7.32;;;;;;;;;;350702;28;1136;-71
2021/06/27 00:29:49;;;;;;;9.68;7.40;;;;;;;;;;350440;28;1070;-71
2021/06/27 00:30:01;;;;;;;10.27;7.00;;;;;;;;;;350685;28;1046;-70
2021/06/27 00:30:14;;;;;;;10.43;7.00;;;;;;;;;;351338;28;1110;-70
2021/06/27 00:30:27;;;;;;;9.02;6.90;;;;;;;;;;350690;28;1114;-72
2021/06/27 00:30:40;;;;;;;8.85;6.80;;;;;;;;;;350157;28;17450;-72
2021/06/27 00:30:54;;;;;;;9.13;6.70;;;;;;;;;;350195;28;16179;-72
2021/06/27 00:31:06;;;;;;;9.00;6.70;;;;;;;;;;350681;28;1199;-70
2021/06/27 00:31:19;;;;;;;10.45;7.13;;;;;;;;;;350591;28;1097;-70
2021/06/27 00:31:31;;;;;;;9.18;6.93;;;;;;;;;;350658;28;997;-74
2021/06/27 00:31:44;;;;;;;8.50;6.97;;;;;;;;;;350722;28;1102;-69
2021/06/27 00:31:56;;;;;;;9.38;6.88;;;;;;;;;;349414;28;1178;-75
2021/06/27 00:32:08;;;;;;;8.65;6.65;;;;;;;;;;349222;28;1155;-74
2021/06/27 00:32:20;;;;;;;7.68;6.50;;;;;;;;;;349309;28;979;-73
2021/06/27 00:32:33;;;;;;;7.82;6.70;;;;;;;;;;350714;28;1104;-70
2021/06/27 00:32:46;;;;;;;7.80;6.90;;;;;;;;;;350643;28;1280;-70
2021/06/27 00:32:59;;;;;;;8.45;7.03;;;;;;;;;;350787;28;1121;-69
2021/06/27 00:33:11;;;;;;;8.85;6.90;;;;;;;;;;350608;28;1079;-71
2021/06/27 00:33:23;;;;;;;8.88;6.82;;;;;;;;;;350717;28;1109;-72
2021/06/27 00:33:36;;;;;;;9.30;6.80;;;;;;;;;;350648;28;1150;-69
2021/06/27 00:33:48;;;;;;;9.85;6.95;;;;;;;;;;350613;28;1090;-70
2021/06/27 00:34:00;;;;;;;8.95;6.63;;;;;;;;;;351928;28;1164;-73
2021/06/27 00:34:12;;;;;;;8.93;6.60;;;;;;;;;;352103;28;1150;-73
2021/06/27 00:34:24;;;;;;;8.68;6.72;;;;;;;;;;352035;28;1071;-69
2021/06/27 00:34:36;;;;;;;8.63;7.18;;;;;;;;;;351989;28;1081;-73
2021/06/27 00:34:48;;;;;;;9.20;7.30;;;;;;;;;;352470;28;1092;-70
2021/06/27 00:35:01;;;;;;;9.63;7.50;;;;;;;;;;351965;28;1074;-75
2021/06/27 00:35:14;;;;;;;9.98;7.40;;;;;;;;;;352086;28;1189;-74
2021/06/27 00:35:27;;;;;;;8.82;6.90;;;;;;;;;;352132;28;1927;-69
2021/06/27 00:35:39;;;;;;;8.27;7.10;;;;;;;;;;352032;28;1237;-74
2021/06/27 00:35:52;;;;;;;9.38;7.45;;;;;;;;;;352251;28;990;-71
2021/06/27 00:36:04;;;;;;;10.55;7.30;;;;;;;;;;352204;28;1161;-74
2021/06/27 00:36:16;;;;;;;10.05;7.18;;;;;;;;;;352138;28;1083;-68
2021/06/27 00:36:29;;;;;;;10.63;7.30;;;;;;;;;;351932;28;1010;-72
2021/06/27 00:36:41;;;;;;;9.65;7.10;;;;;;;;;;352262;28;1101;-70
2021/06/27 00:36:53;;;;;;;9.55;7.07;;;;;;;;;;350758;28;1293;-73
2021/06/27 00:37:06;;;;;;;8.70;6.80;;;;;;;;;;349376;28;1117;-68
2021/06/27 00:37:18;;;;;;;8.05;7.07;;;;;;;;;;349325;28;1157;-70
2021/06/27 00:37:30;;;;;;;9.50;7.50;;;;;;;;;;349270;28;1010;-70
2021/06/27 00:37:43;;;;;;;10.88;7.60;;;;;;;;;;349284;28;1078;-74
2021/06/27 00:37:55;;;;;;;10.43;7.22;;;;;;;;;;349211;28;1146;-70
2021/06/27 00:38:08;;;;;;;8.38;6.90;;;;;;;;;;349284;28;1225;-70
2021/06/27 00:38:20;;;;;;;7.43;6.43;;;;;;;;;;349217;28;1235;-71
2021/06/27 00:38:33;;;;;;;8.77;6.60;;;;;;;;;;349259;28;1201;-74
2021/06/27 00:38:45;;;;;;;10.18;6.88;;;;;;;;;;349303;28;1185;-70
2021/06/27 00:38:57;;;;;;;9.27;7.07;;;;;;;;;;350406;28;1009;-72
2021/06/27 00:39:09;;;;;;;9.27;7.20;;;;;;;;;;351211;28;1687;-69
2021/06/27 00:39:21;;;;;;;9.35;7.22;;;;;;;;;;351233;28;1682;-72
2021/06/27 00:39:33;;;;;;;8.88;7.20;;;;;;;;;;352029;28;1112;-73
2021/06/27 00:39:45;;;;;;;9.27;7.10;;;;;;;;;;352160;28;1851;-70
2021/06/27 00:39:57;;;;;;;8.68;7.10;;;;;;;;;;352246;28;1109;-70
2021/06/27 00:40:11;;;;;;;9.70;7.20;;;;;;;;;;351951;28;1092;-73
2021/06/27 00:40:24;;;;;;;9.98;7.50;;;;;;;;;;352139;28;1110;-70
2021/06/27 00:40:36;;;;;;;8.90;7.50;;;;;;;;;;352045;28;1225;-69
2021/06/27 00:40:49;;;;;;;8.30;7.38;;;;;;;;;;351596;28;17893;-74
2021/06/27 00:41:01;;;;;;;8.50;7.60;;;;;;;;;;350430;28;1201;-69
2021/06/27 00:41:14;;;;;;;8.38;7.47;;;;;;;;;;350688;28;1067;-71
2021/06/27 00:41:26;;;;;;;8.82;7.35;;;;;;;;;;350656;28;1089;-74
2021/06/27 00:41:38;;;;;;;9.77;7.28;;;;;;;;;;350639;28;1168;-73
2021/06/27 00:41:50;;;;;;;9.18;7.25;;;;;;;;;;349460;28;1057;-69
2021/06/27 00:42:03;;;;;;;8.73;7.20;;;;;;;;;;349175;28;1098;-73
2021/06/27 00:42:15;;;;;;;8.57;7.20;;;;;;;;;;348095;28;1357;-72
2021/06/27 00:42:27;;;;;;;8.95;7.30;;;;;;;;;;347879;28;1128;-73
2021/06/27 00:42:40;;;;;;;8.80;7.35;;;;;;;;;;347948;28;1210;-75
2021/06/27 00:42:53;;;;;;;10.23;7.43;;;;;;;;;;347855;28;1055;-69
2021/06/27 00:43:05;;;;;;;9.10;7.00;;;;;;;;;;348860;28;1065;-69
2021/06/27 00:43:18;;;;;;;7.85;6.90;;;;;;;;;;349434;28;970;-70
2021/06/27 00:43:30;;;;;;;7.97;6.85;;;;;;;;;;349150;28;1086;-75
2021/06/27 00:43:42;;;;;;;8.40;6.82;;;;;;;;;;349080;28;1193;-72
2021/06/27 00:43:54;;;;;;;8.60;7.05;;;;;;;;;;350146;28;982;-71
2021/06/27 00:44:06;;;;;;;8.38;6.93;;;;;;;;;;350673;28;1181;-73
2021/06/27 00:44:21;;;;;;;8.27;6.88;;;;;;;;;;351900;28;1109;-74
2021/06/27 00:44:33;;;;;;;10.40;7.05;;;;;;;;;;350814;28;39825;-74
2021/06/27 00:44:45;;;;;;;11.50;7.15;;;;;;;;;;352040;28;1224;-70
2021/06/27 00:44:59;;;;;;;11.18;7.20;;;;;;;;;;351958;28;1056;-70
2021/06/27 00:45:11;;;;;;;9.10;7.10;;;;;;;;;;352173;28;1218;-71
2021/06/27 00:45:25;;;;;;;8.85;7.20;;;;;;;;;;352184;28;1074;-75
2021/06/27 00:45:37;;;;;;;8.13;7.32;;;;;;;;;;351480;28;17059;-70
2021/06/27 00:45:49;;;;;;;8.05;7.25;;;;;;;;;;352006;28;1094;-74
2021/06/27 00:46:02;;;;;;;8.20;7.15;;;;;;;;;;352162;28;1061;-71
2021/06/27 00:46:14;;;;;;;8.93;7.00;;;;;;;;;;352294;28;1254;-70
2021/06/27 00:46:26;;;;;;;8.55;7.07;;;;;;;;;;352228;28;1094;-72
2021/06/27 00:46:39;;;;;;;9.30;7.03;;;;;;;;;;352040;28;1085;-70
2021/06/27 00:46:52;;;;;;;9.52;7.15;;;;;;;;;;351993;28;999;-74
2021/06/27 00:47:04;;;;;;;9.35;7.43;;;;;;;;;;351650;28;16470;-75
2021/06/27 00:47:33;;;;;;;9.18;7.65;;;;;;;;;;352065;28;1081;-74
2021/06/27 00:47:46;;;;;;;9.50;7.10;;;;;;;;;;349942;28;62114;-69
2021/06/27 00:48:01;;;;;;;8.75;7.05;;;;;;;;;;350503;28;1422;-70
2021/06/27 00:48:13;;;;;;;8.18;7.10;;;;;;;;;;348599;28;63941;-72
2021/06/27 00:48:25;;;;;;;8.50;7.28;;;;;;;;;;350676;28;985;-71
2021/06/27 00:48:37;;;;;;;8.80;7.50;;;;;;;;;;350542;28;1069;-75
2021/06/27 00:48:49;;;;;;;9.65;7.45;;;;;;;;;;350498;28;1307;-71
2021/06/27 00:49:02;;;;;;;10.18;7.30;;;;;;;;;;350702;28;1175;-73
2021/06/27 00:49:15;;;;;;;9.00;6.97;;;;;;;;;;350846;28;1030;-74
2021/06/27 00:49:27;;;;;;;9.20;6.88;;;;;;;;;;350673;28;1232;-70
2021/06/27 00:49:39;;;;;;;8.35;6.80;;;;;;;;;;350483;28;1281;-71
2021/06/27 00:49:51;;;;;;;8.00;6.93;;;;;;;;;;350022;28;1683;-69
2021/06/27 00:50:05;;;;;;;7.90;7.10;;;;;;;;;;350514;28;1777;-71
2021/06/27 00:50:19;;;;;;;9.82;7.18;;;;;;;;;;350730;28;40157;-69
2021/06/27 00:50:33;;;;;;;9.66;6.90;;;;;;;;;;352169;28;1312;-71
2021/06/27 00:50:49;;;;;;;8.18;6.85;;;;;;;;;;351542;28;18210;-70
2021/06/27 00:51:01;;;;;;;8.73;7.32;;;;;;;;;;350830;28;40318;-75
2021/06/27 00:51:13;;;;;;;9.13;7.45;;;;;;;;;;350611;28;2106;-70
2021/06/27 00:51:25;;;;;;;9.27;7.57;;;;;;;;;;350638;28;1044;-69
2021/06/27 00:51:37;;;;;;;9.70;7.47;;;;;;;;;;350493;28;1973;-72
2021/06/27 00:51:49;;;;;;;10.52;7.55;;;;;;;;;;350703;28;1077;-70
2021/06/27 00:52:01;;;;;;;11.77;7.57;;;;;;;;;;350710;28;1193;-72
2021/06/27 00:52:14;;;;;;;10.07;7.65;;;;;;;;;;350384;28;1184;-73
2021/06/27 00:52:27;;;;;;;8.43;7.35;;;;;;;;;;350719;28;1050;-70
2021/06/27 00:52:39;;;;;;;8.63;7.28;;;;;;;;;;350724;28;1168;-70
2021/06/27 00:52:51;;;;;;;8.70;7.25;;;;;;;;;;350702;28;1061;-69
2021/06/27 00:53:03;;;;;;;9.02;7.60;;;;;;;;;;350726;28;1127;-73
2021/06/27 00:53:16;;;;;;;10.63;7.82;;;;;;;;;;351535;28;1078;-70
2021/06/27 00:53:28;;;;;;;10.80;7.82;;;;;;;;;;352005;28;990;-74
2021/06/27 00:53:40;;;;;;;12.15;8.02;;;;;;;;;;351978;28;1290;-70
2021/06/27 00:53:52;;;;;;;11.64;7.70;;;;;;;;;;352113;28;1057;-70
2021/06/27 00:54:04;;;;;;;10.30;7.70;;;;;;;;;;351900;28;1065;-70
2021/06/27 00:54:16;;;;;;;10.13;7.88;;;;;;;;;;351990;28;1164;-69
2021/06/27 00:54:28;;;;;;;10.77;8.05;;;;;;;;;;352005;28;1081;-71
2021/06/27 00:54:41;;;;;;;10.15;8.23;;;;;;;;;;352137;28;991;-70
2021/06/27 00:54:53;;;;;;;10.18;8.20;;;;;;;;;;352052;28;1050;-73
2021/06/27 00:55:06;;;;;;;10.32;7.95;;;;;;;;;;352193;28;1165;-69
2021/06/27 00:55:18;;;;;;;9.98;7.85;;;;;;;;;;352011;28;1326;-69
2021/06/27 00:55:30;;;;;;;10.20;8.23;;;;;;;;;;352216;28;1212;-69
2021/06/27 00:55:43;;;;;;;10.63;8.50;;;;;;;;;;352126;28;1064;-74
2021/06/27 00:55:55;;;;;;;10.50;8.60;;;;;;;;;;352063;28;1195;-70
2021/06/27 00:56:08;;;;;;;10.52;8.20;;;;;;;;;;352231;28;1156;-69
2021/06/27 00:56:20;;;;;;;10.02;7.88;;;;;;;;;;352030;28;1298;-70
2021/06/27 00:56:32;;;;;;;10.07;7.90;;;;;;;;;;352130;28;1949;-71
2021/06/27 00:56:45;;;;;;;11.05;8.02;;;;;;;;;;352008;28;1411;-70
2021/06/27 00:56:57;;;;;;;10.43;7.93;;;;;;;;;;351590;28;16022;-71
2021/06/27 00:57:09;;;;;;;9.77;8.07;;;;;;;;;;350626;28;1064;-71
2021/06/27 00:57:22;;;;;;;9.02;8.00;;;;;;;;;;350752;28;1110;-69
2021/06/27 00:57:35;;;;;;;9.26;8.06;;;;;;;;;;350485;28;1037;-73
2021/06/27 00:57:49;;;;;;;9.80;7.97;;;;;;;;;;350679;28;1114;-74
2021/06/27 00:58:01;;;;;;;9.75;7.85;;;;;;;;;;350240;28;17114;-74
2021/06/27 00:58:13;;;;;;;9.13;7.82;;;;;;;;;;350654;28;1666;-73
2021/06/27 00:58:27;;;;;;;10.73;8.18;;;;;;;;;;350730;28;1198;-71
2021/06/27 00:58:39;;;;;;;11.07;8.02;;;;;;;;;;350542;28;1074;-74
2021/06/27 00:58:51;;;;;;;9.82;7.82;;;;;;;;;;350623;28;1077;-72
2021/06/27 00:59:03;;;;;;;9.32;7.97;;;;;;;;;;350850;28;1230;-72
2021/06/27 00:59:15;;;;;;;9.50;7.90;;;;;;;;;;351997;28;1111;-73
2021/06/27 00:59:28;;;;;;;8.80;7.85;;;;;;;;;;352026;28;1102;-70
2021/06/27 00:59:40;;;;;;;8.35;7.55;;;;;;;;;;351943;28;999;-70
2021/06/27 00:59:52;;;;;;;8.35;7.50;;;;;;;;;;352082;28;1116;-69
2021/06/27 01:00:05;;;;;;;9.40;7.93;;;;;;;;;;352048;28;1176;-74
2021/06/27 01:00:19;;;;;;;9.98;8.15;;;;;;;;;;352133;28;1038;-70
2021/06/27 01:00:32;;;;;;;10.32;8.15;;;;;;;;;;350747;28;16985;-74
2021/06/27 01:00:45;;;;;;;10.60;8.20;;;;;;;;;;350983;28;16690;-70
2021/06/27 01:00:58;;;;;;;9.88;8.00;;;;;;;;;;352152;28;998;-71
2021/06/27 01:01:10;;;;;;;10.60;8.10;;;;;;;;;;352108;28;1038;-72
2021/06/27 01:01:22;;;;;;;11.18;8.02;;;;;;;;;;352086;28;1053;-69
2021/06/27 01:01:35;;;;;;;11.77;8.20;;;;;;;;;;350596;28;1097;-73
2021/06/27 01:01:47;;;;;;;11.65;8.35;;;;;;;;;;350723;28;1177;-73
2021/06/27 01:01:59;;;;;;;11.85;8.63;;;;;;;;;;350565;28;1132;-73
2021/06/27 01:02:11;;;;;;;12.07;8.70;;;;;;;;;;350648;28;1101;-69
2021/06/27 01:02:24;;;;;;;13.85;9.18;;;;;;;;;;350443;28;1949;-72
2021/06/27 01:02:36;;;;;;;13.15;9.18;;;;;;;;;;350538;28;1010;-72
2021/06/27 01:02:48;;;;;;;11.54;8.74;;;;;;;;;;350770;28;1108;-74
2021/06/27 01:03:02;;;;;;;12.55;8.52;;;;;;;;;;350060;28;16685;-71
2021/06/27 01:03:14;;;;;;;12.80;8.77;;;;;;;;;;350709;28;1178;-72
2021/06/27 01:03:27;;;;;;;10.70;8.80;;;;;;;;;;350420;28;1076;-73
2021/06/27 01:03:39;;;;;;;10.93;8.60;;;;;;;;;;351800;28;1046;-69
2021/06/27 01:03:51;;;;;;;11.75;8.80;;;;;;;;;;352086;28;1090;-72
2021/06/27 01:04:03;;;;;;;11.48;8.93;;;;;;;;;;351984;28;2088;-71
2021/06/27 01:04:15;;;;;;;11.43;8.95;;;;;;;;;;351993;28;1300;-73
2021/06/27 01:04:27;;;;;;;11.25;8.85;;;;;;;;;;350481;28;1023;-71
2021/06/27 01:04:40;;;;;;;10.84;8.44;;;;;;;;;;350705;28;1092;-72
2021/06/27 01:04:52;;;;;;;11.35;8.50;;;;;;;;;;350662;28;1249;-73
2021/06/27 01:05:06;;;;;;;11.48;8.40;;;;;;;;;;350742;28;1086;-73
2021/06/27 01:05:19;;;;;;;11.65;8.52;;;;;;;;;;349710;28;16718;-74
2021/06/27 01:05:34;;;;;;;12.30;8.60;;;;;;;;;;350125;28;17094;-75
2021/06/27 01:05:46;;;;;;;13.00;8.30;;;;;;;;;;349179;28;41374;-74
2021/06/27 01:05:58;;;;;;;12.63;8.63;;;;;;;;;;350672;28;1050;-73
2021/06/27 01:06:10;;;;;;;11.25;8.70;;;;;;;;;;350625;28;1100;-75
2021/06/27 01:06:23;;;;;;;9.63;8.38;;;;;;;;;;349237;28;1115;-74
2021/06/27 01:06:35;;;;;;;10.18;8.32;;;;;;;;;;350731;28;1202;-74
2021/06/27 01:06:47;;;;;;;10.95;8.38;;;;;;;;;;350724;28;1320;-74
2021/06/27 01:06:59;;;;;;;10.27;8.43;;;;;;;;;;350534;28;1046;-74
2021/06/27 01:07:11;;;;;;;11.20;8.63;;;;;;;;;;350577;28;1106;-73
2021/06/27 01:07:23;;;;;;;10.43;8.55;;;;;;;;;;350669;28;1132;-71
2021/06/27 01:07:35;;;;;;;12.35;8.57;;;;;;;;;;350679;28;1049;-72
2021/06/27 01:07:48;;;;;;;13.15;8.75;;;;;;;;;;350488;28;1065;-74
2021/06/27 01:08:00;;;;;;;12.25;8.55;;;;;;;;;;350529;28;1078;-71
2021/06/27 01:08:12;;;;;;;11.27;8.38;;;;;;;;;;350600;28;1168;-74
2021/06/27 01:08:25;;;;;;;11.30;8.45;;;;;;;;;;351273;28;1157;-71
2021/06/27 01:08:37;;;;;;;11.38;8.73;;;;;;;;;;352063;28;1015;-75
2021/06/27 01:08:49;;;;;;;11.50;9.02;;;;;;;;;;352122;28;1130;-71
2021/06/27 01:09:02;;;;;;;11.40;9.07;;;;;;;;;;352079;28;1033;-72
2021/06/27 01:09:14;;;;;;;11.65;8.80;;;;;;;;;;351994;28;1145;-70
2021/06/27 01:09:26;;;;;;;13.57;8.77;;;;;;;;;;350668;28;1219;-75
2021/06/27 01:09:38;;;;;;;13.00;8.50;;;;;;;;;;349255;28;1127;-69
2021/06/27 01:09:51;;;;;;;12.26;8.52;;;;;;;;;;349371;28;995;-73
2021/06/27 01:10:03;;;;;;;11.13;8.57;;;;;;;;;;349195;28;1038;-70
2021/06/27 01:10:16;;;;;;;10.43;8.80;;;;;;;;;;349262;28;1100;-74
2021/06/27 01:10:28;;;;;;;10.05;8.63;;;;;;;;;;349106;28;1069;-74
2021/06/27 01:10:41;;;;;;;10.05;8.23;;;;;;;;;;349227;28;1093;-73
2021/06/27 01:10:54;;;;;;;10.65;7.95;;;;;;;;;;349189;28;1094;-72
2021/06/27 01:11:06;;;;;;;10.45;8.00;;;;;;;;;;349070;28;1653;-70
2021/06/27 01:11:19;;;;;;;10.48;8.40;;;;;;;;;;348038;28;1625;-73
2021/06/27 01:11:31;;;;;;;11.18;8.55;;;;;;;;;;350302;28;1123;-72
2021/06/27 01:11:43;;;;;;;10.02;8.32;;;;;;;;;;351770;28;1094;-74
2021/06/27 01:11:59;;;;;;;10.27;8.60;;;;;;;;;;351939;28;1103;-70
2021/06/27 01:12:11;;;;;;;10.70;8.80;;;;;;;;;;349777;28;63696;-74
2021/06/27 01:12:23;;;;;;;10.20;8.60;;;;;;;;;;352109;28;1216;-72
2021/06/27 01:12:36;;;;;;;9.48;8.48;;;;;;;;;;352184;28;1094;-74
2021/06/27 01:12:48;;;;;;;10.82;8.50;;;;;;;;;;351881;28;1994;-74
2021/06/27 01:13:01;;;;;;;11.73;8.93;;;;;;;;;;351967;28;1058;-70
2021/06/27 01:13:14;;;;;;;11.27;9.10;;;;;;;;;;352132;28;1171;-74
2021/06/27 01:13:26;;;;;;;10.65;8.93;;;;;;;;;;352213;28;1109;-71
2021/06/27 01:13:38;;;;;;;13.00;9.27;;;;;;;;;;352152;28;1097;-73
2021/06/27 01:13:50;;;;;;;11.98;8.93;;;;;;;;;;351967;28;1246;-72
2021/06/27 01:14:03;;;;;;;10.93;8.75;;;;;;;;;;351959;28;1022;-69
2021/06/27 01:14:15;;;;;;;11.23;9.00;;;;;;;;;;352217;28;1128;-70
2021/06/27 01:14:28;;;;;;;12.75;9.05;;;;;;;;;;352024;28;1101;-74
2021/06/27 01:14:40;;;;;;;11.07;8.90;;;;;;;;;;350695;28;1114;-70
2021/06/27 01:14:54;;;;;;;10.10;8.75;;;;;;;;;;349403;28;1232;-70
2021/06/27 01:15:07;;;;;;;10.98;8.98;;;;;;;;;;347842;28;40892;-71
2021/06/27 01:15:19;;;;;;;11.63;8.82;;;;;;;;;;349151;28;1112;-70
2021/06/27 01:15:32;;;;;;;10.55;8.60;;;;;;;;;;347752;28;1137;-70
2021/06/27 01:15:44;;;;;;;10.73;8.43;;;;;;;;;;347734;28;1181;-69
2021/06/27 01:15:59;;;;;;;10.02;8.20;;;;;;;;;;345758;28;63888;-71
2021/06/27 01:16:11;;;;;;;12.10;8.60;;;;;;;;;;348036;28;1156;-74
2021/06/27 01:16:24;;;;;;;13.73;9.05;;;;;;;;;;347960;28;978;-70
2021/06/27 01:16:40;;;;;;;13.23;9.38;;;;;;;;;;347955;28;1068;-72
2021/06/27 01:16:53;;;;;;;11.32;8.88;;;;;;;;;;346441;28;63718;-73
2021/06/27 01:17:05;;;;;;;10.68;8.52;;;;;;;;;;349257;28;1088;-70
2021/06/27 01:17:17;;;;;;;11.50;8.65;;;;;;;;;;349111;28;1101;-74
2021/06/27 01:17:30;;;;;;;11.70;8.90;;;;;;;;;;349424;28;1004;-73
2021/06/27 01:17:44;;;;;;;11.43;8.80;;;;;;;;;;350636;28;993;-72
2021/06/27 01:17:56;;;;;;;11.43;8.80;;;;;;;;;;350136;28;17014;-75
2021/06/27 01:18:09;;;;;;;10.52;8.70;;;;;;;;;;350582;28;1661;-72